Time;durP1;ratioP1;P1;durP2;ratioP2;P2;SDS_P1;SDS_P2;PMS_P1;PMS_P2;Temp;Humidity;BMP_temperature;BMP_pressure;BME280_temperature;BME280_humidity;BME280_pressure;Samples;Min_cycle;Max_cycle;Signal;HPM_P1;HPM_P2
2022/05/31 00:00:00;;;;;;;;;;;17.10;89.30;;;;;;5070820;28;20044;-60
2022/05/31 00:02:26;;;;;;;0.60;0.55;;;17.10;89.70;;;;;;5070037;28;19929;-60
2022/05/31 00:04:52;;;;;;;0.88;0.40;;;17.10;89.30;;;;;;5084575;28;20036;-60
2022/05/31 00:07:18;;;;;;;1.00;0.40;;;17.20;89.40;;;;;;5089936;28;20052;-59
2022/05/31 00:09:45;;;;;;;0.68;0.60;;;17.10;89.40;;;;;;5089631;28;20097;-59
2022/05/31 00:12:12;;;;;;;1.23;0.68;;;17.20;89.60;;;;;;5089204;28;20493;-60
2022/05/31 00:14:38;;;;;;;0.40;0.40;;;17.10;89.60;;;;;;5090396;28;20188;-59
2022/05/31 00:17:04;;;;;;;1.20;0.45;;;17.10;89.70;;;;;;5090644;28;20062;-60
2022/05/31 00:19:30;;;;;;;0.65;0.63;;;17.10;89.70;;;;;;5087444;28;20132;-60
2022/05/31 00:22:17;;;;;;;0.50;0.40;;;17.10;89.70;;;;;;5083056;28;20486;-60
2022/05/31 00:24:43;;;;;;;;;;;17.10;89.80;;;;;;5094178;28;20083;-59
2022/05/31 00:27:11;;;;;;;0.55;0.55;;;17.10;90.00;;;;;;5077442;28;20372;-59
2022/05/31 00:29:37;;;;;;;0.50;0.50;;;17.10;89.80;;;;;;5073369;28;20381;-59
2022/05/31 00:32:07;;;;;;;0.30;0.30;;;17.10;89.80;;;;;;5074099;28;20047;-59
2022/05/31 00:34:36;;;;;;;0.50;0.50;;;17.10;89.80;;;;;;5081934;28;20091;-60
2022/05/31 00:37:02;;;;;;;0.90;0.52;;;17.10;89.80;;;;;;5094015;28;20134;-59
2022/05/31 00:39:28;;;;;;;0.98;0.50;;;17.10;89.90;;;;;;5092657;28;20043;-60
2022/05/31 00:42:07;;;;;;;1.13;0.60;;;17.20;90.00;;;;;;5091948;28;20047;-59
2022/05/31 00:44:34;;;;;;;0.75;0.57;;;17.10;90.00;;;;;;5081382;28;20401;-59
2022/05/31 00:47:04;;;;;;;0.50;0.50;;;17.10;90.00;;;;;;5073866;28;20055;-59
2022/05/31 00:49:39;;;;;;;0.52;0.52;;;17.20;90.00;;;;;;5089041;28;20049;-59
2022/05/31 00:52:15;;;;;;;0.90;0.70;;;17.10;90.00;;;;;;5073507;28;20090;-60
2022/05/31 00:54:49;;;;;;;0.73;0.47;;;17.10;90.00;;;;;;5077011;28;20058;-59
2022/05/31 00:57:15;;;;;;;0.40;0.40;;;17.10;90.00;;;;;;5092533;28;20079;-60
2022/05/31 00:59:48;;;;;;;0.60;0.60;;;17.10;90.00;;;;;;5087752;28;20087;-59
2022/05/31 01:02:17;;;;;;;0.57;0.57;;;17.10;90.00;;;;;;5090392;28;20082;-59
2022/05/31 01:05:04;;;;;;;1.40;0.85;;;17.10;90.00;;;;;;5077316;28;20048;-59
2022/05/31 01:07:30;;;;;;;0.63;0.60;;;17.10;90.10;;;;;;5072683;28;20055;-59
2022/05/31 01:09:56;;;;;;;0.60;0.60;;;17.10;90.10;;;;;;5072495;28;20044;-59
2022/05/31 01:12:23;;;;;;;0.75;0.50;;;17.10;90.10;;;;;;5087607;28;20066;-59
2022/05/31 01:14:49;;;;;;;0.95;0.60;;;17.10;90.10;;;;;;5092090;28;20397;-60
2022/05/31 01:17:18;;;;;;;0.52;0.50;;;17.10;90.10;;;;;;5076361;28;20045;-60
2022/05/31 01:19:56;;;;;;;0.88;0.40;;;17.10;90.10;;;;;;5071571;28;20044;-60
2022/05/31 01:22:37;;;;;;;0.88;0.55;;;17.10;90.10;;;;;;5088254;28;20052;-60
2022/05/31 01:25:40;;;;;;;0.82;0.65;;;17.10;90.20;;;;;;5089043;28;20052;-60
2022/05/31 01:28:26;;;;;;;0.47;0.47;;;17.10;90.20;;;;;;5072207;28;20044;-60
2022/05/31 01:31:07;;;;;;;1.08;0.55;;;17.10;90.20;;;;;;5072782;28;20040;-59
2022/05/31 01:33:44;;;;;;;0.52;0.40;;;17.10;90.20;;;;;;5083266;28;20052;-59
2022/05/31 01:36:15;;;;;;;0.43;0.43;;;17.10;90.30;;;;;;5092932;28;20045;-59
2022/05/31 01:38:55;;;;;;;0.40;0.40;;;17.10;90.30;;;;;;5092505;28;20755;-59
2022/05/31 01:41:37;;;;;;;0.60;0.60;;;17.10;90.30;;;;;;5089733;28;20485;-63
2022/05/31 01:44:07;;;;;;;1.13;0.80;;;17.10;90.30;;;;;;5092680;28;20048;-59
2022/05/31 01:46:35;;;;;;;0.45;0.45;;;17.10;90.30;;;;;;5091933;28;20048;-59
2022/05/31 01:49:06;;;;;;;0.65;0.47;;;17.10;90.40;;;;;;5079678;28;20068;-60
2022/05/31 01:51:34;;;;;;;0.40;0.40;;;17.10;90.40;;;;;;5076061;28;20525;-59
2022/05/31 01:54:00;;;;;;;0.50;0.50;;;17.10;90.40;;;;;;5092274;28;20062;-60
2022/05/31 01:56:26;;;;;;;1.25;0.52;;;17.10;90.50;;;;;;5087318;28;20390;-59
2022/05/31 01:58:54;;;;;;;0.63;0.50;;;17.10;90.50;;;;;;5092249;28;20055;-60
2022/05/31 02:01:21;;;;;;;0.60;0.60;;;17.10;90.50;;;;;;5089296;28;20083;-59
2022/05/31 02:03:47;;;;;;;0.40;0.40;;;17.10;90.50;;;;;;5071652;28;20044;-60
2022/05/31 02:06:22;;;;;;;;;;;17.10;90.50;;;;;;5072332;28;20596;-60
2022/05/31 02:08:48;;;;;;;0.47;0.40;;;17.10;90.70;;;;;;5071152;28;19921;-59
2022/05/31 02:11:14;;;;;;;0.70;0.40;;;17.10;90.60;;;;;;5090100;28;20051;-60
2022/05/31 02:13:39;;;;;;;;;;;17.10;90.60;;;;;;5088218;28;20053;-60
2022/05/31 02:16:05;;;;;;;1.25;0.50;;;17.10;90.80;;;;;;5071053;28;20408;-59
2022/05/31 02:21:15;;;;;;;0.40;0.40;;;17.10;90.60;;;;;;5072815;28;20139;-60
2022/05/31 02:23:40;;;;;;;0.40;0.40;;;17.10;90.60;;;;;;5072530;28;20328;-59
2022/05/31 02:26:06;;;;;;;;;;;17.10;90.70;;;;;;5070793;28;20048;-60
2022/05/31 02:28:32;;;;;;;0.50;0.50;;;17.10;90.90;;;;;;5070652;28;19921;-59
2022/05/31 02:30:58;;;;;;;0.80;0.73;;;17.10;90.70;;;;;;5084266;28;20040;-59
2022/05/31 02:33:23;;;;;;;;;;;17.10;90.70;;;;;;5092191;28;20135;-60
2022/05/31 02:35:49;;;;;;;0.30;0.30;;;17.10;90.90;;;;;;5090507;28;20376;-59
2022/05/31 02:38:15;;;;;;;;;;;17.10;90.70;;;;;;5091820;28;20091;-60
2022/05/31 02:40:41;;;;;;;0.40;0.40;;;17.10;91.00;;;;;;5089927;28;19931;-59
2022/05/31 02:43:07;;;;;;;0.55;0.55;;;17.10;90.70;;;;;;5091121;28;20052;-61
2022/05/31 02:45:33;;;;;;;0.50;0.50;;;17.10;90.80;;;;;;5087634;28;20092;-59
2022/05/31 02:47:59;;;;;;;0.65;0.65;;;17.10;90.80;;;;;;5071359;28;20056;-59
2022/05/31 02:50:26;;;;;;;0.75;0.75;;;17.10;90.90;;;;;;5071444;28;20049;-60
2022/05/31 02:52:52;;;;;;;0.75;0.50;;;17.10;90.90;;;;;;5070767;28;20052;-59
2022/05/31 02:55:18;;;;;;;1.05;0.60;;;17.10;90.90;;;;;;5090664;28;20079;-59
2022/05/31 02:57:43;;;;;;;0.30;0.30;;;17.10;91.00;;;;;;5089770;28;20168;-59
2022/05/31 03:00:10;;;;;;;0.60;0.47;;;17.10;91.00;;;;;;5091234;28;20047;-60
2022/05/31 03:02:37;;;;;;;0.50;0.50;;;17.10;91.00;;;;;;5091024;28;20079;-59
2022/05/31 03:05:03;;;;;;;0.73;0.50;;;17.10;91.10;;;;;;5074466;28;20127;-59
2022/05/31 03:07:29;;;;;;;0.68;0.60;;;17.10;91.40;;;;;;5070832;28;20047;-63
2022/05/31 03:09:55;;;;;;;0.75;0.75;;;17.10;91.10;;;;;;5070142;28;20519;-59
2022/05/31 03:12:22;;;;;;;0.65;0.57;;;17.10;91.20;;;;;;5069539;28;20102;-59
2022/05/31 03:14:50;;;;;;;0.40;0.40;;;17.10;91.20;;;;;;5070351;28;20135;-59
2022/05/31 03:17:30;;;;;;;1.27;0.50;;;17.10;91.20;;;;;;5071019;28;20044;-59
2022/05/31 03:20:19;;;;;;;0.70;0.60;;;17.10;91.30;;;;;;5070813;28;20127;-59
2022/05/31 03:22:52;;;;;;;0.50;0.50;;;17.10;91.30;;;;;;5070172;28;20127;-60
2022/05/31 03:25:25;;;;;;;0.52;0.40;;;17.10;91.30;;;;;;5075338;28;20050;-59
2022/05/31 03:27:54;;;;;;;0.77;0.52;;;17.10;91.30;;;;;;5090290;28;20356;-59
2022/05/31 03:30:20;;;;;;;0.80;0.52;;;17.10;91.30;;;;;;5089487;28;20040;-59
2022/05/31 03:32:46;;;;;;;;;;;17.10;91.30;;;;;;5090978;28;20051;-60
2022/05/31 03:35:12;;;;;;;0.40;0.40;;;17.10;91.50;;;;;;5090862;28;19935;-59
2022/05/31 03:37:38;;;;;;;1.38;0.50;;;17.10;91.30;;;;;;5106027;28;20044;-59
2022/05/31 03:40:05;;;;;;;0.50;0.50;;;17.10;91.40;;;;;;5089790;28;20052;-59
2022/05/31 03:42:31;;;;;;;0.93;0.50;;;17.10;91.40;;;;;;5074904;28;20045;-60
2022/05/31 03:44:57;;;;;;;0.77;0.63;;;17.10;91.40;;;;;;5069773;28;20037;-60
2022/05/31 03:47:22;;;;;;;0.40;0.40;;;17.10;91.40;;;;;;5101084;28;20147;-59
2022/05/31 03:49:48;;;;;;;0.55;0.55;;;17.10;91.50;;;;;;5090356;28;20040;-59
2022/05/31 03:52:14;;;;;;;0.57;0.52;;;17.10;91.50;;;;;;5090558;28;20047;-59
2022/05/31 03:54:39;;;;;;;;;;;17.10;91.50;;;;;;5090250;28;20143;-59
2022/05/31 03:57:07;;;;;;;0.68;0.47;;;17.10;91.70;;;;;;5090735;28;19931;-60
2022/05/31 03:59:37;;;;;;;0.60;0.60;;;17.10;91.50;;;;;;5094690;28;20047;-60
2022/05/31 04:02:04;;;;;;;1.45;0.65;;;17.10;91.60;;;;;;5094903;28;20450;-59
2022/05/31 04:04:30;;;;;;;0.50;0.50;;;17.10;91.60;;;;;;5091632;28;20144;-59
2022/05/31 04:06:56;;;;;;;0.63;0.60;;;17.10;91.60;;;;;;5094062;28;20109;-59
2022/05/31 04:09:21;;;;;;;;;;;17.10;91.70;;;;;;5094539;28;20059;-59
2022/05/31 04:11:48;;;;;;;1.63;0.70;;;17.00;91.80;;;;;;5092805;28;19930;-59
2022/05/31 04:14:13;;;;;;;0.40;0.40;;;17.10;91.70;;;;;;5093460;28;20052;-59
2022/05/31 04:16:39;;;;;;;1.20;0.63;;;17.10;91.70;;;;;;5074007;28;20059;-64
2022/05/31 04:19:05;;;;;;;0.55;0.55;;;17.10;91.70;;;;;;5073933;28;20345;-59
2022/05/31 04:21:31;;;;;;;1.02;0.65;;;17.10;91.70;;;;;;5073868;28;20102;-59
2022/05/31 04:23:59;;;;;;;;;;;17.10;91.80;;;;;;5072833;28;20127;-60
2022/05/31 04:29:31;;;;;;;0.60;0.40;;;17.10;91.90;;;;;;5068905;27;20403;-58
2022/05/31 04:31:56;;;;;;;0.50;0.50;;;17.00;91.80;;;;;;5067606;28;20049;-57
2022/05/31 04:34:22;;;;;;;0.57;0.50;;;17.00;91.80;;;;;;5056834;28;20132;-59
2022/05/31 04:36:47;;;;;;;;;;;17.10;91.90;;;;;;5046584;28;20191;-57
2022/05/31 04:39:13;;;;;;;0.82;0.60;;;17.00;92.00;;;;;;5046902;28;20007;-57
2022/05/31 04:41:39;;;;;;;0.68;0.63;;;17.00;91.90;;;;;;5045166;28;20102;-58
2022/05/31 04:44:05;;;;;;;;;;;17.00;91.90;;;;;;5046862;28;20045;-57
2022/05/31 04:46:32;;;;;;;0.50;0.50;;;17.10;92.10;;;;;;5047933;28;19986;-57
2022/05/31 04:48:59;;;;;;;0.45;0.45;;;17.00;91.90;;;;;;5047192;28;20037;-57
2022/05/31 04:51:29;;;;;;;0.50;0.50;;;17.10;92.00;;;;;;5050400;28;20183;-57
2022/05/31 04:53:54;;;;;;;0.95;0.50;;;17.10;92.00;;;;;;5046839;28;20049;-57
2022/05/31 04:56:21;;;;;;;0.63;0.63;;;17.10;92.30;;;;;;5053841;28;20634;-58
2022/05/31 04:58:48;;;;;;;0.70;0.40;;;17.00;92.10;;;;;;5066869;28;20049;-57
2022/05/31 05:01:14;;;;;;;0.60;0.60;;;17.00;92.10;;;;;;5065760;28;20084;-57
2022/05/31 05:03:44;;;;;;;0.73;0.55;;;17.10;92.10;;;;;;5046149;28;20426;-57
2022/05/31 05:06:12;;;;;;;1.48;0.70;;;17.10;92.20;;;;;;5050428;28;20124;-59
2022/05/31 05:08:38;;;;;;;0.75;0.55;;;17.10;92.20;;;;;;5049991;28;20036;-59
2022/05/31 05:11:07;;;;;;;1.10;0.63;;;17.10;92.20;;;;;;5065236;28;20041;-60
2022/05/31 05:13:33;;;;;;;0.85;0.60;;;17.10;92.20;;;;;;5066749;28;20056;-60
2022/05/31 05:16:00;;;;;;;0.50;0.50;;;17.10;92.30;;;;;;5048935;28;20041;-59
2022/05/31 05:18:27;;;;;;;0.82;0.70;;;17.00;92.20;;;;;;5067206;28;20414;-60
2022/05/31 05:20:53;;;;;;;0.55;0.55;;;17.10;92.30;;;;;;5063878;28;20056;-60
2022/05/31 05:23:19;;;;;;;0.65;0.65;;;17.10;92.30;;;;;;5047040;28;20091;-59
2022/05/31 05:25:49;;;;;;;0.85;0.50;;;17.00;92.30;;;;;;5053791;28;20049;-63
2022/05/31 05:30:59;;;;;;;1.00;0.60;;;17.00;92.30;;;;;;5054269;28;20072;-60
2022/05/31 05:33:25;;;;;;;1.40;0.95;;;17.00;92.30;;;;;;5047085;28;20467;-59
2022/05/31 05:35:50;;;;;;;;;;;17.10;92.30;;;;;;5046914;28;20053;-59
2022/05/31 05:38:16;;;;;;;0.75;0.60;;;17.00;92.40;;;;;;5047630;28;19964;-59
2022/05/31 05:40:42;;;;;;;0.55;0.55;;;17.00;92.30;;;;;;5051699;28;20237;-59
2022/05/31 05:43:08;;;;;;;;;;;17.00;92.30;;;;;;5052867;28;20049;-59
2022/05/31 05:45:34;;;;;;;0.73;0.73;;;17.10;92.40;;;;;;5052332;28;19924;-59
2022/05/31 05:48:01;;;;;;;1.67;0.60;;;17.00;92.20;;;;;;5037426;28;20376;-59
2022/05/31 05:50:27;;;;;;;0.70;0.70;;;17.00;92.30;;;;;;5033557;28;20486;-60
2022/05/31 05:53:00;;;;;;;0.60;0.60;;;17.00;92.30;;;;;;5032706;28;20139;-59
2022/05/31 05:55:26;;;;;;;0.73;0.70;;;17.00;92.30;;;;;;5034318;28;20048;-60
2022/05/31 05:57:51;;;;;;;0.50;0.50;;;17.00;92.30;;;;;;5041986;28;20045;-59
2022/05/31 06:00:17;;;;;;;1.42;0.95;;;17.00;92.30;;;;;;5033319;28;20052;-60
2022/05/31 06:02:47;;;;;;;;;;;17.00;92.30;;;;;;5033715;28;20056;-60
2022/05/31 06:05:19;;;;;;;1.35;0.68;;;17.00;92.50;;;;;;5050604;28;19931;-59
2022/05/31 06:08:07;;;;;;;0.70;0.70;;;17.00;92.40;;;;;;5047524;28;20042;-59
2022/05/31 06:10:48;;;;;;;0.68;0.68;;;17.00;92.40;;;;;;5030179;28;20114;-59
2022/05/31 06:13:18;;;;;;;1.35;0.68;;;17.00;92.40;;;;;;5032144;28;20050;-59
2022/05/31 06:15:49;;;;;;;0.40;0.40;;;17.00;92.40;;;;;;5033053;28;20564;-60
2022/05/31 06:18:21;;;;;;;1.38;1.02;;;17.00;92.50;;;;;;5033128;28;20053;-59
2022/05/31 06:20:51;;;;;;;0.50;0.50;;;17.00;92.50;;;;;;5035210;28;20056;-59
2022/05/31 06:23:16;;;;;;;1.23;0.55;;;17.00;92.60;;;;;;5052634;28;20064;-59
2022/05/31 06:25:42;;;;;;;0.57;0.52;;;17.10;92.90;;;;;;5050454;28;20052;-59
2022/05/31 06:28:08;;;;;;;;;;;17.00;92.60;;;;;;5039906;28;20058;-60
2022/05/31 06:30:33;;;;;;;1.13;0.50;;;17.10;92.80;;;;;;5036473;28;20012;-59
2022/05/31 06:32:59;;;;;;;0.60;0.60;;;17.00;92.60;;;;;;5031652;28;20053;-59
2022/05/31 06:35:26;;;;;;;;;;;17.10;92.70;;;;;;5032876;28;20041;-59
2022/05/31 06:37:51;;;;;;;0.57;0.57;;;17.00;92.80;;;;;;5032174;28;20337;-63
2022/05/31 06:40:17;;;;;;;1.58;0.68;;;17.00;92.60;;;;;;5031366;28;20044;-59
2022/05/31 06:42:43;;;;;;;;;;;17.00;92.70;;;;;;5035744;28;20502;-59
2022/05/31 06:45:09;;;;;;;0.40;0.40;;;17.00;92.90;;;;;;5031892;28;19921;-59
2022/05/31 06:47:34;;;;;;;0.47;0.40;;;17.00;92.70;;;;;;5031316;28;20501;-59
2022/05/31 06:50:00;;;;;;;;;;;17.00;92.80;;;;;;5032118;28;20048;-59
2022/05/31 06:57:54;;;;;;;0.40;0.40;;;17.10;92.80;;;;;;5031339;28;20479;-62
2022/05/31 07:00:21;;;;;;;0.43;0.43;;;17.10;92.90;;;;;;5030352;28;20045;-60
2022/05/31 07:02:49;;;;;;;0.30;0.30;;;17.10;92.90;;;;;;5029392;28;20306;-59
2022/05/31 07:05:18;;;;;;;0.40;0.40;;;17.10;92.90;;;;;;5031545;28;20129;-60
2022/05/31 07:07:44;;;;;;;0.40;0.40;;;17.10;92.90;;;;;;5035342;28;20427;-59
2022/05/31 07:10:10;;;;;;;1.45;0.40;;;17.10;92.90;;;;;;5032620;28;20053;-59
2022/05/31 07:12:37;;;;;;;0.50;0.50;;;17.10;93.00;;;;;;5033496;28;20162;-60
2022/05/31 07:15:04;;;;;;;0.40;0.40;;;17.10;93.00;;;;;;5033005;28;20064;-60
2022/05/31 07:17:29;;;;;;;0.73;0.57;;;17.10;93.00;;;;;;5036297;28;20110;-59
2022/05/31 07:19:56;;;;;;;0.55;0.55;;;17.10;93.10;;;;;;5030679;28;20499;-63
2022/05/31 07:22:21;;;;;;;;;;;17.10;93.10;;;;;;5029474;28;20049;-59
2022/05/31 07:24:47;;;;;;;0.60;0.57;;;17.10;93.20;;;;;;5028954;28;19920;-59
2022/05/31 07:27:14;;;;;;;1.98;0.60;;;17.10;93.10;;;;;;5027215;28;20490;-59
2022/05/31 07:29:41;;;;;;;0.45;0.45;;;17.10;93.10;;;;;;5030420;28;20065;-59
2022/05/31 07:32:07;;;;;;;0.60;0.40;;;17.10;93.20;;;;;;5029212;28;20056;-59
2022/05/31 07:34:33;;;;;;;0.80;0.50;;;17.10;93.10;;;;;;5029621;28;20136;-59
2022/05/31 07:37:00;;;;;;;3.15;0.93;;;17.10;93.10;;;;;;5041100;28;20051;-63
2022/05/31 07:39:26;;;;;;;1.30;1.00;;;17.10;93.00;;;;;;5039043;28;20053;-60
2022/05/31 07:41:56;;;;;;;1.00;0.90;;;17.10;92.60;;;;;;5029370;28;20049;-59
2022/05/31 07:44:23;;;;;;;1.08;0.80;;;17.10;92.40;;;;;;5030578;28;20053;-59
2022/05/31 07:46:49;;;;;;;0.85;0.85;;;17.10;92.30;;;;;;5037656;28;20135;-59
2022/05/31 07:49:15;;;;;;;3.60;0.90;;;17.10;92.30;;;;;;5038092;28;20124;-59
2022/05/31 07:51:41;;;;;;;0.80;0.80;;;17.20;92.40;;;;;;5030702;28;20049;-60
2022/05/31 07:54:07;;;;;;;0.85;0.68;;;17.20;92.40;;;;;;5029899;28;20049;-59
2022/05/31 07:56:33;;;;;;;0.88;0.65;;;17.20;92.40;;;;;;5031142;28;20549;-59
2022/05/31 07:58:58;;;;;;;;;;;17.20;92.30;;;;;;5041087;28;20506;-59
2022/05/31 08:01:25;;;;;;;2.13;0.90;;;17.20;92.30;;;;;;5030239;28;19929;-59
2022/05/31 08:03:55;;;;;;;3.05;1.40;;;17.20;92.40;;;;;;5029396;28;20043;-60
2022/05/31 08:06:23;;;;;;;1.25;0.93;;;17.20;92.30;;;;;;5030071;28;20656;-59
2022/05/31 08:08:50;;;;;;;2.53;1.20;;;17.20;92.30;;;;;;5028667;28;20037;-59
2022/05/31 08:11:22;;;;;;;1.25;1.10;;;17.20;92.30;;;;;;5028296;28;20390;-59
2022/05/31 08:13:49;;;;;;;7.60;1.33;;;17.20;92.40;;;;;;5030594;28;20037;-59
2022/05/31 08:16:17;;;;;;;2.70;1.40;;;17.20;92.30;;;;;;5030308;28;20426;-59
2022/05/31 08:18:44;;;;;;;3.58;1.75;;;17.20;92.30;;;;;;5030455;28;20052;-61
2022/05/31 08:21:16;;;;;;;3.05;1.52;;;17.30;92.40;;;;;;5037089;28;20037;-59
2022/05/31 08:23:42;;;;;;;3.65;2.03;;;17.30;92.40;;;;;;5029975;28;20049;-59
2022/05/31 08:26:09;;;;;;;4.93;2.10;;;17.30;92.40;;;;;;5041128;28;20045;-61
2022/05/31 08:28:35;;;;;;;7.00;2.30;;;17.30;92.40;;;;;;5043452;28;20100;-60
2022/05/31 08:31:05;;;;;;;;;;;17.30;92.40;;;;;;5031005;28;20053;-60
2022/05/31 08:33:31;;;;;;;4.18;1.92;;;17.30;92.30;;;;;;5031522;28;20416;-60
2022/05/31 08:35:57;;;;;;;;;;;17.30;92.30;;;;;;5046244;28;20447;-60
2022/05/31 08:38:23;;;;;;;6.47;2.33;;;17.30;92.30;;;;;;5028769;28;19979;-60
2022/05/31 08:40:52;;;;;;;4.72;1.90;;;17.30;92.30;;;;;;5030239;28;20049;-60
2022/05/31 08:43:24;;;;;;;6.25;2.60;;;17.30;92.30;;;;;;5035468;28;20051;-60
2022/05/31 08:45:57;;;;;;;5.20;2.00;;;17.30;92.30;;;;;;5039718;28;20076;-60
2022/05/31 08:48:35;;;;;;;6.13;2.40;;;17.30;92.20;;;;;;5052001;28;20384;-60
2022/05/31 08:56:56;;;;;;;6.85;2.20;;;17.40;92.30;;;;;;5033239;28;20057;-61
2022/05/31 08:59:32;;;;;;;5.50;2.30;;;17.40;92.30;;;;;;5028660;28;20064;-61
2022/05/31 09:02:02;;;;;;;13.73;2.88;;;17.40;92.20;;;;;;5030555;28;20099;-61
2022/05/31 09:04:37;;;;;;;8.05;2.63;;;17.40;92.10;;;;;;5041615;28;20144;-61
2022/05/31 09:07:06;;;;;;;8.50;2.65;;;17.40;92.00;;;;;;5037934;28;20037;-59
2022/05/31 09:09:58;;;;;;;4.65;2.53;;;17.40;91.90;;;;;;5036658;28;20049;-61
2022/05/31 09:12:37;;;;;;;4.15;2.50;;;17.40;91.50;;;;;;5032152;28;20053;-62
2022/05/31 09:15:09;;;;;;;5.65;2.03;;;17.40;91.90;;;;;;5036684;28;20132;-62
2022/05/31 09:17:58;;;;;;;12.07;3.15;;;17.40;91.50;;;;;;5040024;28;20057;-61
2022/05/31 09:20:31;;;;;;;4.68;1.90;;;17.40;91.60;;;;;;5036919;28;20158;-61
2022/05/31 09:22:57;;;;;;;4.72;2.33;;;17.40;91.70;;;;;;5041720;28;20080;-62
2022/05/31 09:25:22;;;;;;;7.63;1.85;;;17.50;91.70;;;;;;5036529;28;20838;-62
2022/05/31 09:27:49;;;;;;;;;;;17.50;91.70;;;;;;5053091;28;20057;-64
2022/05/31 09:30:43;;;;;;;3.83;1.63;;;17.50;91.70;;;;;;5052061;28;19925;-64
2022/05/31 09:33:24;;;;;;;16.60;2.17;;;17.50;91.80;;;;;;5032728;28;20064;-61
2022/05/31 09:36:11;;;;;;;2.53;1.30;;;17.50;91.80;;;;;;5033152;28;20046;-63
2022/05/31 09:38:39;;;;;;;4.88;1.30;;;17.50;91.80;;;;;;5046235;28;20052;-64
2022/05/31 09:41:12;;;;;;;2.90;1.50;;;17.50;91.80;;;;;;5051392;28;20502;-61
2022/05/31 09:43:50;;;;;;;4.38;1.40;;;17.50;91.90;;;;;;5035137;28;20064;-59
2022/05/31 09:46:39;;;;;;;5.30;1.48;;;17.50;91.90;;;;;;5032913;28;20077;-60
2022/05/31 09:49:20;;;;;;;3.78;1.40;;;17.50;91.90;;;;;;5033048;28;20033;-60
2022/05/31 09:51:46;;;;;;;6.15;1.33;;;17.50;91.90;;;;;;5045744;28;20037;-60
2022/05/31 09:57:07;;;;;;;4.53;1.67;;;17.50;92.00;;;;;;5035601;28;20044;-60
2022/05/31 09:59:43;;;;;;;1.45;1.20;;;17.50;92.00;;;;;;5051801;28;20045;-60
2022/05/31 10:02:18;;;;;;;3.90;1.20;;;17.60;91.90;;;;;;5046980;28;20608;-60
2022/05/31 10:04:45;;;;;;;2.38;1.20;;;17.60;91.90;;;;;;5039110;28;20430;-60
2022/05/31 10:07:11;;;;;;;3.63;1.30;;;17.50;92.00;;;;;;5049799;28;20049;-60
2022/05/31 10:09:43;;;;;;;4.63;1.65;;;17.50;91.90;;;;;;5031567;28;20041;-60
2022/05/31 10:12:34;;;;;;;3.28;1.23;;;17.60;92.00;;;;;;5035168;28;20044;-60
2022/05/31 10:15:03;;;;;;;2.10;1.00;;;17.60;91.90;;;;;;5050952;28;20053;-60
2022/05/31 10:17:44;;;;;;;1.95;1.30;;;17.60;92.00;;;;;;5051002;28;20045;-61
2022/05/31 10:20:12;;;;;;;12.63;2.03;;;17.60;91.80;;;;;;5049767;28;20490;-60
2022/05/31 10:22:48;;;;;;;3.40;1.73;;;17.60;91.50;;;;;;5051760;28;20045;-60
2022/05/31 10:25:23;;;;;;;8.23;1.42;;;17.60;91.40;;;;;;5048595;28;20048;-63
2022/05/31 10:27:54;;;;;;;2.85;1.40;;;17.60;91.30;;;;;;5037246;28;20588;-60
2022/05/31 10:30:22;;;;;;;4.15;1.42;;;17.60;91.30;;;;;;5042420;28;20049;-60
2022/05/31 10:32:57;;;;;;;1.80;1.15;;;17.60;91.20;;;;;;5052387;28;20653;-60
2022/05/31 10:35:31;;;;;;;2.28;1.30;;;17.60;91.50;;;;;;5051843;28;20055;-60
2022/05/31 10:38:05;;;;;;;1.83;1.30;;;17.60;91.20;;;;;;5068061;28;20106;-61
2022/05/31 10:40:49;;;;;;;1.30;0.98;;;17.60;91.10;;;;;;5050497;28;20052;-60
2022/05/31 10:43:15;;;;;;;2.47;1.38;;;17.60;91.00;;;;;;5051616;28;20662;-60
2022/05/31 10:45:42;;;;;;;3.03;1.42;;;17.60;91.00;;;;;;5051985;28;20170;-60
2022/05/31 10:48:08;;;;;;;2.20;1.25;;;17.60;91.00;;;;;;5052258;28;20105;-60
2022/05/31 10:51:00;;;;;;;3.00;1.25;;;17.60;91.00;;;;;;5049447;28;20053;-60
2022/05/31 10:53:35;;;;;;;2.97;1.20;;;17.60;90.80;;;;;;5051039;28;20853;-60
2022/05/31 10:56:15;;;;;;;4.90;1.67;;;17.60;90.90;;;;;;5046846;28;20040;-60
2022/05/31 10:58:42;;;;;;;3.53;1.23;;;17.60;90.90;;;;;;5036512;28;20049;-61
2022/05/31 11:01:35;;;;;;;4.95;1.88;;;17.60;90.80;;;;;;5040332;28;20454;-61
2022/05/31 11:04:19;;;;;;;3.97;1.27;;;17.60;90.60;;;;;;5058443;28;20482;-62
2022/05/31 11:06:57;;;;;;;2.42;1.40;;;17.60;90.30;;;;;;5040264;28;20042;-61
2022/05/31 11:12:42;;;;;;;3.53;1.45;;;17.60;90.00;;;;;;5043591;28;20759;-61
2022/05/31 11:15:26;;;;;;;4.50;1.48;;;17.70;90.30;;;;;;5031558;28;20049;-62
2022/05/31 11:18:16;;;;;;;2.60;1.35;;;17.70;89.80;;;;;;5031057;28;20088;-60
2022/05/31 11:21:12;;;;;;;1.88;1.08;;;17.70;89.20;;;;;;5030744;28;20081;-59
2022/05/31 11:23:40;;;;;;;1.80;1.20;;;17.80;89.30;;;;;;5030767;28;20502;-61
2022/05/31 11:26:16;;;;;;;4.80;1.58;;;17.80;89.30;;;;;;5030154;28;20518;-61
2022/05/31 11:28:58;;;;;;;3.97;1.73;;;17.80;88.50;;;;;;5029867;28;20049;-64
2022/05/31 11:31:35;;;;;;;4.68;1.55;;;17.80;88.30;;;;;;5030577;28;20507;-64
2022/05/31 11:34:31;;;;;;;9.13;1.80;;;17.90;88.10;;;;;;5042806;28;20106;-63
2022/05/31 11:37:06;;;;;;;7.50;1.70;;;17.90;87.80;;;;;;5034453;28;20483;-63
2022/05/31 11:39:43;;;;;;;4.50;1.58;;;17.90;88.10;;;;;;5030918;28;20079;-64
2022/05/31 11:42:33;;;;;;;2.05;1.40;;;18.00;88.00;;;;;;5041408;28;20216;-63
2022/05/31 11:45:13;;;;;;;4.15;1.83;;;18.00;87.50;;;;;;5031783;28;20092;-62
2022/05/31 11:47:39;;;;;;;10.68;1.98;;;18.00;87.90;;;;;;5030598;28;20502;-62
2022/05/31 11:50:04;;;;;;;;;;;18.10;88.10;;;;;;5043543;28;20045;-63
2022/05/31 11:52:50;;;;;;;5.40;1.30;;;18.10;87.80;;;;;;5033052;28;19921;-65
2022/05/31 11:55:28;;;;;;;6.38;1.52;;;18.10;88.00;;;;;;5028353;28;20102;-63
2022/05/31 11:58:06;;;;;;;4.32;1.52;;;18.10;87.90;;;;;;5032066;28;20399;-64
2022/05/31 12:00:59;;;;;;;2.22;1.50;;;18.10;87.70;;;;;;5029243;28;20389;-65
2022/05/31 12:03:53;;;;;;;6.93;1.55;;;18.20;87.70;;;;;;5030624;28;20064;-65
2022/05/31 12:06:43;;;;;;;3.28;1.33;;;18.20;87.90;;;;;;5030597;28;20052;-65
2022/05/31 12:09:16;;;;;;;3.03;1.55;;;18.20;87.90;;;;;;5030094;28;20131;-66
2022/05/31 12:11:56;;;;;;;4.60;1.52;;;18.20;88.00;;;;;;5028987;28;20136;-63
2022/05/31 12:14:23;;;;;;;3.90;1.50;;;18.30;87.90;;;;;;5029608;28;20140;-64
2022/05/31 12:16:50;;;;;;;4.03;1.48;;;18.30;88.00;;;;;;5044806;28;20111;-65
2022/05/31 12:19:34;;;;;;;3.88;1.17;;;18.20;88.00;;;;;;5030372;28;20033;-73
2022/05/31 12:22:23;;;;;;;5.68;1.30;;;18.30;88.10;;;;;;5035756;28;20053;-70
2022/05/31 12:24:54;;;;;;;4.85;1.60;;;18.30;88.20;;;;;;5031113;28;20044;-69
2022/05/31 12:27:25;;;;;;;5.15;1.30;;;18.30;88.30;;;;;;5045541;28;20123;-69
2022/05/31 12:29:58;;;;;;;3.47;2.05;;;18.30;88.20;;;;;;5038972;28;20123;-69
2022/05/31 12:32:30;;;;;;;3.80;1.45;;;18.30;88.20;;;;;;5030114;28;20052;-69
2022/05/31 12:35:02;;;;;;;1.83;1.23;;;18.30;88.30;;;;;;5030460;28;20060;-69
2022/05/31 12:37:56;;;;;;;2.25;1.20;;;18.30;88.30;;;;;;5030012;28;20049;-69
2022/05/31 12:40:27;;;;;;;2.58;1.45;;;18.30;88.20;;;;;;5029173;28;20646;-71
2022/05/31 12:42:53;;;;;;;2.63;1.50;;;18.30;88.40;;;;;;5030476;28;20053;-68
2022/05/31 12:45:21;;;;;;;;;;;18.40;88.60;;;;;;5048562;28;20083;-68
2022/05/31 12:47:58;;;;;;;3.10;1.30;;;18.40;88.50;;;;;;5037697;28;20695;-67
2022/05/31 12:50:46;;;;;;;2.03;1.20;;;18.40;88.60;;;;;;5042879;28;20060;-69
2022/05/31 12:53:23;;;;;;;3.15;1.27;;;18.40;88.60;;;;;;5034429;28;20049;-67
2022/05/31 12:56:07;;;;;;;;;;;18.40;88.70;;;;;;5049634;28;20048;-68
2022/05/31 12:58:45;;;;;;;2.58;1.30;;;18.40;88.80;;;;;;5045193;28;19951;-66
2022/05/31 13:01:10;;;;;;;2.95;1.30;;;18.40;88.80;;;;;;5034370;28;20045;-68
2022/05/31 13:03:42;;;;;;;;;;;18.40;88.80;;;;;;5034419;28;20079;-68
2022/05/31 13:06:08;;;;;;;3.60;1.40;;;18.40;89.10;;;;;;5033785;28;20450;-68
2022/05/31 13:08:51;;;;;;;;;;;18.40;88.90;;;;;;5049341;28;20136;-68
2022/05/31 13:20:21;;;;;;;1.55;0.93;;;18.50;89.20;;;;;;5048117;28;20053;-59
2022/05/31 13:23:06;;;;;;;0.63;0.63;;;18.60;89.20;;;;;;5053464;28;20049;-58
2022/05/31 13:25:50;;;;;;;1.15;1.00;;;18.60;89.10;;;;;;5051807;28;20509;-59
2022/05/31 13:28:29;;;;;;;3.92;0.93;;;18.60;89.00;;;;;;5033039;28;20053;-58
2022/05/31 13:31:02;;;;;;;3.22;0.90;;;18.70;89.00;;;;;;5033259;28;20053;-59
2022/05/31 13:33:28;;;;;;;2.67;0.90;;;18.70;89.00;;;;;;5050582;28;20052;-59
2022/05/31 13:36:02;;;;;;;3.22;0.90;;;18.70;89.00;;;;;;5049547;28;20611;-59
2022/05/31 13:38:31;;;;;;;3.10;0.73;;;18.70;88.90;;;;;;5051331;28;20049;-57
2022/05/31 13:40:59;;;;;;;2.15;0.93;;;18.80;89.00;;;;;;5050738;28;20045;-58
2022/05/31 13:43:44;;;;;;;0.60;0.60;;;18.80;88.90;;;;;;5049658;28;20045;-59
2022/05/31 13:46:25;;;;;;;1.75;0.77;;;18.80;88.90;;;;;;5049558;28;20045;-58
2022/05/31 13:48:54;;;;;;;0.90;0.90;;;18.80;88.80;;;;;;5041916;28;20072;-59